Time,TemperatureF,DewpointF,PressureIn,WindDirection,WindDirectionDegrees,WindSpeedMPH,WindSpeedGustMPH,Humidity,HourlyPrecipIn,Conditions,Clouds,dailyrainin,SolarRadiationWatts/m^2,SoftwareType,DateUTC
2013-07-01 00:00:00,67.1,64.7,29.78,NNE,28,0.0,0.0,92,0.00,,,0.17,0,Wunderground v.1.15,2013-07-01 04:00:00,
2013-07-01 00:10:00,66.9,64.8,29.77,North,5,1.0,1.0,93,0.00,,,0.17,0,Wunderground v.1.15,2013-07-01 04:10:00,
2013-07-01 00:21:00,66.8,64.7,29.77,NNE,22,1.0,1.0,93,0.00,,,0.17,0,Wunderground v.1.15,2013-07-01 04:21:00,
2013-07-01 00:30:00,66.6,64.5,29.77,NNE,22,0.0,6.0,93,0.00,,,0.00,0,Wunderground v.1.15,2013-07-01 04:30:00,
2013-07-01 00:40:00,66.6,64.5,29.76,NNE,22,0.0,0.0,93,0.00,,,0.00,0,Wunderground v.1.15,2013-07-01 04:40:00,
2013-07-01 00:50:00,66.8,64.7,29.76,NNE,22,0.0,0.0,93,0.00,,,0.00,0,Wunderground v.1.15,2013-07-01 04:50:00,
2013-07-01 01:00:00,66.8,64.7,29.77,NNE,22,0.0,0.0,93,0.00,,,0.00,0,Wunderground v.1.15,2013-07-01 05:00:00,
2013-07-01 01:10:00,66.8,65.0,29.76,NNE,22,0.0,5.0,94,0.00,,,0.00,0,Wunderground v.1.15,2013-07-01 05:10:00,
2013-07-01 01:20:00,66.8,65.0,29.76,NNE,22,0.0,5.0,94,0.00,,,0.00,0,Wunderground v.1.15,2013-07-01 05:20:00,
2013-07-01 01:30:00,66.8,65.0,29.76,NNE,22,0.0,5.0,94,0.00,,,0.00,0,Wunderground v.1.15,2013-07-01 05:30:00,
2013-07-01 01:40:00,66.8,65.0,29.77,East,91,0.0,0.0,94,0.00,,,0.00,0,Wunderground v.1.15,2013-07-01 05:40:00,
2013-07-01 01:50:00,66.8,65.0,29.77,East,91,0.0,0.0,94,0.00,,,0.00,0,Wunderground v.1.15,2013-07-01 05:50:00,
2013-07-01 02:00:00,66.8,65.3,29.77,East,91,0.0,0.0,95,0.00,,,0.00,0,Wunderground v.1.15,2013-07-01 06:00:00,
2013-07-01 02:10:00,66.8,65.3,29.77,East,91,0.0,2.0,95,0.00,,,0.00,0,Wunderground v.1.15,2013-07-01 06:10:00,
2013-07-01 02:20:00,66.4,64.9,29.77,East,91,0.0,2.0,95,0.00,,,0.00,0,Wunderground v.1.15,2013-07-01 06:20:00,
2013-07-01 02:30:00,66.3,64.8,29.76,East,91,0.0,2.0,95,0.00,,,0.00,0,Wunderground v.1.15,2013-07-01 06:30:00,
2013-07-01 02:40:00,66.3,64.8,29.76,East,91,0.0,0.0,95,0.00,,,0.00,0,Wunderground v.1.15,2013-07-01 06:40:00,
2013-07-01 02:50:00,66.3,64.8,29.76,East,91,0.0,0.0,95,0.00,,,0.00,0,Wunderground v.1.15,2013-07-01 06:50:00,
2013-07-01 03:00:00,66.3,64.8,29.76,East,91,0.0,0.0,95,0.00,,,0.00,0,Wunderground v.1.15,2013-07-01 07:00:00,
2013-07-01 03:10:00,66.3,64.8,29.76,East,91,0.0,3.0,95,0.00,,,0.00,0,Wunderground v.1.15,2013-07-01 07:10:00,
2013-07-01 03:20:00,66.3,64.8,29.76,East,91,0.0,3.0,95,0.00,,,0.00,0,Wunderground v.1.15,2013-07-01 07:20:00,
2013-07-01 03:30:00,66.1,64.6,29.76,East,91,0.0,3.0,95,0.00,,,0.00,0,Wunderground v.1.15,2013-07-01 07:30:00,
2013-07-01 03:40:00,66.1,64.9,29.76,East,91,0.0,0.0,96,0.00,,,0.00,0,Wunderground v.1.15,2013-07-01 07:40:00,
2013-07-01 03:50:00,66.1,64.9,29.76,East,91,0.0,0.0,96,0.00,,,0.00,0,Wunderground v.1.15,2013-07-01 07:50:00,
2013-07-01 04:00:00,66.1,64.9,29.76,East,91,0.0,0.0,96,0.00,,,0.00,0,Wunderground v.1.15,2013-07-01 08:00:00,
2013-07-01 04:10:00,66.1,64.9,29.76,North,5,0.0,0.0,96,0.00,,,0.00,0,Wunderground v.1.15,2013-07-01 08:10:00,
2013-07-01 04:20:00,66.1,64.9,29.76,North,5,0.0,0.0,96,0.00,,,0.00,0,Wunderground v.1.15,2013-07-01 08:20:00,
2013-07-01 04:30:00,66.3,65.1,29.76,North,5,0.0,0.0,96,0.00,,,0.00,0,Wunderground v.1.15,2013-07-01 08:30:00,
2013-07-01 04:40:00,66.3,65.1,29.76,North,5,0.0,0.0,96,0.00,,,0.00,0,Wunderground v.1.15,2013-07-01 08:40:00,
2013-07-01 04:50:00,66.0,64.8,29.76,North,5,0.0,0.0,96,0.00,,,0.00,0,Wunderground v.1.15,2013-07-01 08:50:00,
2013-07-01 05:00:00,66.1,64.9,29.76,North,5,0.0,0.0,96,0.00,,,0.00,0,Wunderground v.1.15,2013-07-01 09:00:00,
2013-07-01 05:10:00,66.0,64.8,29.76,North,5,0.0,2.0,96,0.00,,,0.00,0,Wunderground v.1.15,2013-07-01 09:10:00,
2013-07-01 05:21:00,65.8,64.6,29.76,North,5,0.0,2.0,96,0.00,,,0.00,0,Wunderground v.1.15,2013-07-01 09:21:00,
2013-07-01 05:30:00,65.6,64.4,29.76,North,5,0.0,2.0,96,0.00,,,0.00,0,Wunderground v.1.15,2013-07-01 09:30:00,
2013-07-01 05:40:00,65.5,64.3,29.77,North,5,0.0,0.0,96,0.00,,,0.00,0,Wunderground v.1.15,2013-07-01 09:40:00,
2013-07-01 05:50:00,65.5,64.3,29.77,North,5,0.0,0.0,96,0.00,,,0.00,0,Wunderground v.1.15,2013-07-01 09:50:00,
2013-07-01 06:00:00,65.3,64.1,29.77,North,5,0.0,0.0,96,0.00,,,0.00,0,Wunderground v.1.15,2013-07-01 10:00:00,
2013-07-01 06:10:00,65.2,64.0,29.78,North,5,0.0,0.0,96,0.00,,,0.00,0,Wunderground v.1.15,2013-07-01 10:10:00,
2013-07-01 06:20:00,65.3,64.1,29.78,North,5,0.0,0.0,96,0.00,,,0.00,0,Wunderground v.1.15,2013-07-01 10:20:00,
2013-07-01 06:30:00,65.2,64.0,29.78,North,5,0.0,0.0,96,0.00,,,0.00,0,Wunderground v.1.15,2013-07-01 10:30:00,
2013-07-01 06:40:00,65.0,63.8,29.79,North,5,0.0,0.0,96,0.00,,,0.00,0,Wunderground v.1.15,2013-07-01 10:40:00,
2013-07-01 06:51:00,64.8,63.6,29.79,North,5,0.0,0.0,96,0.00,,,0.00,5,Wunderground v.1.15,2013-07-01 10:51:00,
2013-07-01 07:00:00,65.2,64.0,29.80,North,5,0.0,0.0,96,0.00,,,0.00,9,Wunderground v.1.15,2013-07-01 11:00:00,
2013-07-01 07:10:00,65.5,64.3,29.80,North,5,0.0,0.0,96,0.00,,,0.00,14,Wunderground v.1.15,2013-07-01 11:10:00,
2013-07-01 07:20:00,65.8,64.6,29.80,North,5,0.0,0.0,96,0.00,,,0.00,19,Wunderground v.1.15,2013-07-01 11:20:00,
2013-07-01 07:30:00,66.1,64.9,29.80,North,5,0.0,0.0,96,0.00,,,0.00,25,Wunderground v.1.15,2013-07-01 11:30:00,
2013-07-01 07:40:00,66.4,65.2,29.81,North,5,0.0,0.0,96,0.00,,,0.00,37,Wunderground v.1.15,2013-07-01 11:40:00,
2013-07-01 07:50:00,66.4,65.2,29.81,North,5,0.0,0.0,96,0.00,,,0.00,40,Wunderground v.1.15,2013-07-01 11:50:00,
2013-07-01 08:00:00,66.8,65.6,29.80,North,5,0.0,0.0,96,0.00,,,0.00,49,Wunderground v.1.15,2013-07-01 12:00:00,
2013-07-01 08:10:00,67.1,66.2,29.81,North,5,0.0,0.0,97,0.00,,,0.00,63,Wunderground v.1.15,2013-07-01 12:10:00,
2013-07-01 08:21:00,67.4,66.5,29.81,North,5,0.0,0.0,97,0.00,,,0.00,60,Wunderground v.1.15,2013-07-01 12:21:00,
2013-07-01 08:30:00,67.4,66.2,29.81,North,5,0.0,0.0,96,0.00,,,0.00,54,Wunderground v.1.15,2013-07-01 12:30:00,
2013-07-01 08:40:00,67.8,66.6,29.82,North,5,0.0,0.0,96,0.00,,,0.00,81,Wunderground v.1.15,2013-07-01 12:40:00,
2013-07-01 08:50:00,67.9,66.7,29.82,North,5,0.0,0.0,96,0.00,,,0.00,70,Wunderground v.1.15,2013-07-01 12:50:00,
2013-07-01 09:00:00,68.3,67.1,29.82,North,5,0.0,0.0,96,0.00,,,0.00,118,Wunderground v.1.15,2013-07-01 13:00:00,
2013-07-01 09:10:00,68.6,67.4,29.83,North,5,0.0,0.0,96,0.00,,,0.00,97,Wunderground v.1.15,2013-07-01 13:10:00,
2013-07-01 09:20:00,68.8,67.6,29.83,North,5,0.0,0.0,96,0.00,,,0.00,95,Wunderground v.1.15,2013-07-01 13:20:00,
2013-07-01 09:30:00,69.1,67.9,29.83,North,5,0.0,0.0,96,0.00,,,0.00,72,Wunderground v.1.15,2013-07-01 13:30:00,
2013-07-01 09:40:00,69.4,68.2,29.83,North,5,0.0,0.0,96,0.00,,,0.00,137,Wunderground v.1.15,2013-07-01 13:40:00,
2013-07-01 09:50:00,69.8,68.3,29.83,North,5,0.0,0.0,95,0.00,,,0.00,62,Wunderground v.1.15,2013-07-01 13:50:00,
2013-07-01 10:00:00,69.9,68.1,29.83,North,5,0.0,0.0,94,0.00,,,0.00,93,Wunderground v.1.15,2013-07-01 14:00:00,
2013-07-01 10:10:00,70.1,68.0,29.83,North,5,0.0,0.0,93,0.00,,,0.00,107,Wunderground v.1.15,2013-07-01 14:10:00,
2013-07-01 10:20:00,70.1,67.7,29.83,SE,140,1.0,3.0,92,0.00,,,0.00,204,Wunderground v.1.15,2013-07-01 14:20:00,
2013-07-01 10:30:00,70.6,67.5,29.83,SE,140,1.0,1.0,90,0.00,,,0.00,206,Wunderground v.1.15,2013-07-01 14:30:00,
2013-07-01 10:40:00,71.5,68.1,29.83,SSE,155,1.0,5.0,89,0.00,,,0.00,239,Wunderground v.1.15,2013-07-01 14:40:00,
2013-07-01 10:50:00,72.5,68.1,29.83,SSE,161,1.0,4.0,86,0.00,,,0.00,179,Wunderground v.1.15,2013-07-01 14:50:00,
2013-07-01 11:00:00,73.0,67.5,29.83,SSE,148,4.0,4.0,83,0.00,,,0.00,141,Wunderground v.1.15,2013-07-01 15:00:00,
2013-07-01 11:10:00,73.5,68.0,29.84,SW,225,2.0,2.0,83,0.00,,,0.00,104,Wunderground v.1.15,2013-07-01 15:10:00,
2013-07-01 11:20:00,73.3,67.8,29.84,SSE,161,2.0,4.0,83,0.00,,,0.00,190,Wunderground v.1.15,2013-07-01 15:20:00,
2013-07-01 11:30:00,74.0,67.8,29.84,SSE,148,2.0,2.0,81,0.00,,,0.00,357,Wunderground v.1.15,2013-07-01 15:30:00,
2013-07-01 11:40:00,74.7,67.4,29.83,SSE,157,2.0,2.0,78,0.00,,,0.00,207,Wunderground v.1.15,2013-07-01 15:40:00,
2013-07-01 11:50:00,75.8,68.1,29.83,SE,143,1.0,2.0,77,0.00,,,0.00,241,Wunderground v.1.15,2013-07-01 15:50:00,
2013-07-01 12:00:00,76.0,67.1,29.84,South,191,4.0,4.0,74,0.00,,,0.00,253,Wunderground v.1.15,2013-07-01 16:00:00,
2013-07-01 12:10:00,76.1,67.6,29.83,South,186,3.0,9.0,75,0.00,,,0.00,434,Wunderground v.1.15,2013-07-01 16:10:00,
2013-07-01 12:20:00,77.2,67.9,29.83,SW,218,5.0,5.0,73,0.00,,,0.00,381,Wunderground v.1.15,2013-07-01 16:20:00,
2013-07-01 12:30:00,77.7,67.5,29.82,South,185,3.0,9.0,71,0.00,,,0.00,290,Wunderground v.1.15,2013-07-01 16:30:00,
2013-07-01 12:40:00,77.7,67.5,29.82,SSE,148,4.0,7.0,71,0.00,,,0.00,98,Wunderground v.1.15,2013-07-01 16:40:00,
2013-07-01 12:50:00,77.2,68.3,29.82,WSW,240,2.0,2.0,74,0.00,,,0.00,35,Wunderground v.1.15,2013-07-01 16:50:00,
2013-07-01 13:00:00,76.1,68.4,29.82,West,279,1.0,1.0,77,0.00,,,0.00,63,Wunderground v.1.15,2013-07-01 17:00:00,
2013-07-01 13:10:00,75.4,68.8,29.83,West,269,1.0,1.0,80,0.00,,,0.00,100,Wunderground v.1.15,2013-07-01 17:10:00,
2013-07-01 13:20:00,74.4,69.2,29.83,West,277,2.0,2.0,84,0.00,,,0.00,153,Wunderground v.1.15,2013-07-01 17:20:00,
2013-07-01 13:30:00,73.9,69.4,29.82,NNW,347,3.0,11.0,86,0.00,,,0.00,956,Wunderground v.1.15,2013-07-01 17:30:00,
2013-07-01 13:40:00,73.9,69.8,29.82,West,280,2.0,2.0,87,0.00,,,0.00,974,Wunderground v.1.15,2013-07-01 17:40:00,
2013-07-01 13:51:00,73.5,67.7,29.82,North,355,3.0,3.0,82,0.00,,,0.00,327,Wunderground v.1.15,2013-07-01 17:51:00,
2013-07-01 14:00:00,73.9,68.4,29.83,North,355,0.0,0.0,83,0.00,,,0.00,304,Wunderground v.1.15,2013-07-01 18:00:00,
2013-07-01 14:10:00,74.4,68.5,29.82,West,259,0.0,9.0,82,0.00,,,0.00,425,Wunderground v.1.15,2013-07-01 18:10:00,
2013-07-01 14:20:00,75.4,69.5,29.82,SSE,159,1.0,1.0,82,0.00,,,0.00,385,Wunderground v.1.15,2013-07-01 18:20:00,
2013-07-01 14:30:00,75.6,69.4,29.81,SSE,157,0.0,9.0,81,0.00,,,0.00,380,Wunderground v.1.15,2013-07-01 18:30:00,
2013-07-01 14:40:00,76.0,70.1,29.80,NE,37,0.0,0.0,82,0.00,,,0.00,239,Wunderground v.1.15,2013-07-01 18:40:00,
2013-07-01 14:50:00,76.8,70.9,29.80,NNE,22,1.0,2.0,82,0.00,,,0.00,200,Wunderground v.1.15,2013-07-01 18:50:00,
2013-07-01 15:00:00,77.4,70.7,29.80,North,5,1.0,2.0,80,0.00,,,0.00,956,Wunderground v.1.15,2013-07-01 19:00:00,
2013-07-01 15:10:00,77.6,69.0,29.80,NNW,340,0.0,10.0,75,0.00,,,0.00,185,Wunderground v.1.15,2013-07-01 19:10:00,
2013-07-01 15:20:00,76.5,68.7,29.80,NNW,329,3.0,10.0,77,0.00,,,0.00,195,Wunderground v.1.15,2013-07-01 19:20:00,
2013-07-01 15:30:00,77.0,68.9,29.81,NNE,26,2.0,2.0,76,0.00,,,0.00,939,Wunderground v.1.15,2013-07-01 19:30:00,
2013-07-01 15:40:00,77.9,67.7,29.81,NNW,348,2.0,3.0,71,0.00,,,0.00,264,Wunderground v.1.15,2013-07-01 19:40:00,
2013-07-01 15:50:00,79.2,66.4,29.81,WNW,296,3.0,3.0,65,0.00,,,0.00,292,Wunderground v.1.15,2013-07-01 19:50:00,
2013-07-01 16:00:00,79.6,65.4,29.81,North,355,1.0,1.0,62,0.00,,,0.00,139,Wunderground v.1.15,2013-07-01 20:00:00,
2013-07-01 16:10:00,79.6,66.3,29.81,SSW,201,0.0,6.0,64,0.00,,,0.00,33,Wunderground v.1.15,2013-07-01 20:10:00,
2013-07-01 16:21:00,78.1,65.8,29.81,NNE,24,1.0,1.0,66,0.00,,,0.00,37,Wunderground v.1.15,2013-07-01 20:21:00,
2013-07-01 16:30:00,77.7,66.3,29.81,West,274,0.0,6.0,68,0.00,,,0.00,16,Wunderground v.1.15,2013-07-01 20:30:00,
2013-07-01 16:40:00,76.5,63.4,29.82,SW,223,3.0,3.0,64,0.00,,,0.00,149,Wunderground v.1.15,2013-07-01 20:40:00,
2013-07-01 16:50:00,75.1,59.8,29.82,NNW,346,2.0,2.0,59,0.00,,,0.00,142,Wunderground v.1.15,2013-07-01 20:50:00,
2013-07-01 17:00:00,74.9,62.3,29.82,NNW,346,0.0,0.0,65,0.00,,,0.00,144,Wunderground v.1.15,2013-07-01 21:00:00,
2013-07-01 17:10:00,74.9,62.3,29.82,NNW,346,0.0,5.0,65,0.00,,,0.00,144,Wunderground v.1.15,2013-07-01 21:10:00,
2013-07-01 17:30:00,75.3,62.3,29.81,NNW,346,0.0,5.0,64,0.00,,,0.00,123,Wunderground v.1.15,2013-07-01 21:30:00,
2013-07-01 17:40:00,75.6,62.6,29.80,NNW,346,1.0,1.0,64,0.00,,,0.00,253,Wunderground v.1.15,2013-07-01 21:40:00,
2013-07-01 17:51:00,77.4,61.9,29.80,NNW,346,0.0,0.0,59,0.00,,,0.00,139,Wunderground v.1.15,2013-07-01 21:51:00,
2013-07-01 18:00:00,79.2,62.1,29.80,NNW,346,1.0,1.0,56,0.00,,,0.00,554,Wunderground v.1.15,2013-07-01 22:00:00,
2013-07-01 18:10:00,80.5,63.4,29.81,WSW,257,1.0,13.0,56,0.00,,,0.00,142,Wunderground v.1.15,2013-07-01 22:10:00,
2013-07-01 18:30:00,78.3,64.2,29.80,WSW,252,0.0,13.0,62,0.00,,,0.00,54,Wunderground v.1.15,2013-07-01 22:30:00,
2013-07-01 18:40:00,77.4,63.8,29.81,West,281,0.0,1.0,63,0.00,,,0.00,74,Wunderground v.1.15,2013-07-01 22:40:00,
2013-07-01 20:10:00,76.0,65.1,29.83,NNW,339,0.0,4.0,69,0.00,,,0.00,19,Wunderground v.1.15,2013-07-02 00:10:00,
2013-07-01 20:21:00,75.8,65.7,29.83,NNW,339,0.0,4.0,71,0.00,,,0.00,12,Wunderground v.1.15,2013-07-02 00:21:00,
2013-07-01 20:40:00,75.4,66.1,29.83,NNW,339,0.0,0.0,73,0.00,,,0.00,16,Wunderground v.1.15,2013-07-02 00:40:00,
2013-07-01 20:50:00,75.3,66.4,29.83,NNW,339,0.0,0.0,74,0.00,,,0.00,0,Wunderground v.1.15,2013-07-02 00:50:00,
2013-07-01 21:00:00,75.3,66.8,29.83,NNW,339,0.0,0.0,75,0.00,,,0.00,0,Wunderground v.1.15,2013-07-02 01:00:00,
2013-07-01 21:10:00,75.3,67.6,29.85,NNW,331,1.0,3.0,77,0.00,,,0.00,0,Wunderground v.1.15,2013-07-02 01:10:00,
2013-07-01 21:20:00,74.0,68.2,29.85,NNW,345,4.0,4.0,82,0.00,,,0.00,0,Wunderground v.1.15,2013-07-02 01:20:00,
2013-07-01 21:30:00,72.0,66.6,29.86,SSW,194,3.0,5.0,83,0.00,,,0.00,0,Wunderground v.1.15,2013-07-02 01:30:00,
2013-07-01 21:40:00,68.9,64.5,29.86,SSE,155,4.0,5.0,86,0.00,,,0.00,0,Wunderground v.1.15,2013-07-02 01:40:00,
2013-07-01 21:51:00,67.8,64.4,29.86,South,175,1.0,2.0,89,0.00,,,0.00,0,Wunderground v.1.15,2013-07-02 01:51:00,
2013-07-01 22:00:00,67.3,64.3,29.86,South,175,0.0,0.0,90,0.00,,,0.00,0,Wunderground v.1.15,2013-07-02 02:00:00,
2013-07-01 22:10:00,66.8,64.1,29.88,South,175,0.0,15.0,91,0.00,,,0.00,0,Wunderground v.1.15,2013-07-02 02:10:00,
2013-07-01 22:20:00,66.9,64.5,29.88,South,175,0.0,15.0,92,0.00,,,0.00,0,Wunderground v.1.15,2013-07-02 02:20:00,
2013-07-01 22:30:00,66.9,64.8,29.88,South,175,0.0,15.0,93,0.00,,,0.00,0,Wunderground v.1.15,2013-07-02 02:30:00,
2013-07-01 22:40:00,66.9,64.8,29.89,South,175,0.0,0.0,93,0.00,,,0.00,0,Wunderground v.1.15,2013-07-02 02:40:00,
2013-07-01 22:50:00,66.9,64.8,29.89,South,175,0.0,0.0,93,0.00,,,0.00,0,Wunderground v.1.15,2013-07-02 02:50:00,
2013-07-01 23:00:00,67.1,65.3,29.88,South,175,0.0,0.0,94,0.00,,,0.00,0,Wunderground v.1.15,2013-07-02 03:00:00,
2013-07-01 23:10:00,67.1,65.3,29.89,South,175,0.0,8.0,94,0.00,,,0.00,0,Wunderground v.1.15,2013-07-02 03:10:00,
2013-07-01 23:20:00,67.1,65.3,29.89,South,175,0.0,8.0,94,0.00,,,0.00,0,Wunderground v.1.15,2013-07-02 03:20:00,
2013-07-01 23:30:00,66.9,65.1,29.89,South,175,0.0,8.0,94,0.00,,,0.00,0,Wunderground v.1.15,2013-07-02 03:30:00,
2013-07-01 23:40:00,67.1,65.6,29.89,South,175,1.0,1.0,95,0.00,,,0.00,0,Wunderground v.1.15,2013-07-02 03:40:00,
2013-07-01 23:50:00,67.3,65.8,29.89,South,175,0.0,0.0,95,0.00,,,0.00,0,Wunderground v.1.15,2013-07-02 03:50:00,